Time;durP1;ratioP1;P1;durP2;ratioP2;P2;SDS_P1;SDS_P2;PMS_P1;PMS_P2;Temp;Humidity;BMP_temperature;BMP_pressure;BME280_temperature;BME280_humidity;BME280_pressure;Samples;Min_cycle;Max_cycle;Signal;HPM_P1;HPM_P2
2022/07/23 00:00:33;;;;;;;11.90;10.73;;;;;;;33.07;40.27;101155.56;4196864;28;20423;-59
2022/07/23 00:02:37;;;;;;;14.05;11.07;;;;;;;33.05;40.25;101158.75;4197217;28;20476;-59
2022/07/23 00:04:39;;;;;;;11.75;10.55;;;;;;;33.06;40.54;101165.25;4197150;28;20098;-60
2022/07/23 00:06:42;;;;;;;12.13;10.93;;;;;;;33.06;40.32;101165.25;4197023;28;20049;-60
2022/07/23 00:08:44;;;;;;;13.85;11.23;;;;;;;33.05;40.08;101163.59;4196460;28;20054;-60
2022/07/23 00:10:45;;;;;;;12.52;11.32;;;;;;;33.05;40.25;101163.59;4196603;28;20040;-60
2022/07/23 00:12:46;;;;;;;12.30;11.13;;;;;;;33.04;40.22;101162.78;4197172;28;20426;-60
2022/07/23 00:14:48;;;;;;;11.88;10.77;;;;;;;32.99;40.16;101153.69;4197132;28;20036;-60
2022/07/23 00:16:49;;;;;;;12.48;11.27;;;;;;;33.05;40.29;101169.28;4197016;28;20036;-59
2022/07/23 00:18:51;;;;;;;11.75;10.57;;;;;;;33.05;40.54;101169.28;4196914;28;20040;-59
2022/07/23 00:20:55;;;;;;;12.65;11.27;;;;;;;33.05;40.31;101169.28;4199257;28;20098;-59
2022/07/23 00:22:56;;;;;;;11.73;10.57;;;;;;;33.04;40.30;101170.47;4198881;28;20601;-59
2022/07/23 00:24:57;;;;;;;12.35;11.15;;;;;;;33.04;40.43;101170.47;4200032;28;20090;-60
2022/07/23 00:26:59;;;;;;;12.35;11.15;;;;;;;33.03;40.60;101178.13;4200064;28;20521;-59
2022/07/23 00:29:03;;;;;;;12.70;11.40;;;;;;;33.03;40.74;101177.31;4199577;28;20036;-59
2022/07/23 00:31:07;;;;;;;13.07;11.70;;;;;;;33.04;40.49;101178.97;4199700;28;20113;-59
2022/07/23 00:33:08;;;;;;;13.68;10.90;;;;;;;33.04;40.69;101178.97;4199411;28;20082;-59
2022/07/23 00:35:09;;;;;;;11.80;10.70;;;;;;;33.04;40.57;101185.47;4199451;28;20090;-59
2022/07/23 00:37:11;;;;;;;12.10;10.93;;;;;;;33.05;40.57;101180.63;4199885;28;20537;-59
2022/07/23 00:39:12;;;;;;;12.82;11.55;;;;;;;33.05;40.45;101183.44;4199381;28;20094;-59
2022/07/23 00:41:13;;;;;;;13.02;11.73;;;;;;;33.04;40.69;101178.97;4199627;28;20049;-59
2022/07/23 00:43:20;;;;;;;12.93;10.90;;;;;;;33.03;40.80;101195.13;4199572;28;20510;-59
2022/07/23 00:45:22;;;;;;;13.75;11.20;;;;;;;32.97;40.58;101175.91;4199166;28;20036;-60
2022/07/23 00:47:26;;;;;;;13.25;11.38;;;;;;;33.03;40.81;101183.78;4199220;28;20593;-59
2022/07/23 00:49:30;;;;;;;12.65;11.32;;;;;;;33.04;40.67;101190.31;4199055;28;20044;-59
2022/07/23 00:51:31;;;;;;;12.33;11.13;;;;;;;33.04;40.86;101202.47;4199251;28;20086;-59
2022/07/23 00:53:32;;;;;;;12.65;11.38;;;;;;;33.04;40.78;101210.97;4199653;28;20090;-59
2022/07/23 00:55:34;;;;;;;13.85;12.55;;;;;;;33.03;40.99;101206.47;4199160;28;20438;-59
2022/07/23 00:57:36;;;;;;;12.68;11.45;;;;;;;33.03;40.91;101205.66;4199119;28;20040;-59
2022/07/23 00:59:40;;;;;;;13.07;11.80;;;;;;;33.04;40.73;101207.31;4198755;28;20094;-59
2022/07/23 01:01:43;;;;;;;13.50;12.13;;;;;;;33.03;41.07;101211.31;4199016;28;20438;-59
2022/07/23 01:03:45;;;;;;;12.57;11.27;;;;;;;33.04;41.10;101213.00;4198970;28;20024;-59
2022/07/23 01:05:49;;;;;;;13.45;12.15;;;;;;;32.95;41.30;101193.28;4199203;28;20046;-59
2022/07/23 01:07:51;;;;;;;13.38;12.10;;;;;;;33.02;40.86;101215.34;4199049;28;20525;-59
2022/07/23 01:09:56;;;;;;;13.27;11.88;;;;;;;33.04;41.07;101225.16;4198724;28;20032;-59
2022/07/23 01:11:58;;;;;;;;;;;;;;;33.03;40.60;101222.66;4199009;28;20044;-59
2022/07/23 01:14:07;;;;;;;13.40;12.00;;;;;;;33.06;40.67;101219.13;4199702;28;20418;-59
2022/07/23 01:16:08;;;;;;;13.40;12.05;;;;;;;33.05;41.11;101221.13;4198838;28;20044;-59
2022/07/23 01:18:10;;;;;;;13.30;12.00;;;;;;;33.06;41.10;101231.28;4199057;28;20094;-59
2022/07/23 01:20:12;;;;;;;13.27;11.88;;;;;;;32.95;41.24;101212.31;4198573;28;20032;-59
2022/07/23 01:22:15;;;;;;;13.00;11.80;;;;;;;33.05;41.26;101234.50;4198766;28;20040;-59
2022/07/23 01:24:19;;;;;;;12.18;10.98;;;;;;;33.04;40.97;101239.34;4198405;28;20102;-59
2022/07/23 01:26:22;;;;;;;15.85;13.30;;;;;;;33.04;41.18;101247.00;4198440;28;20045;-59
2022/07/23 01:28:23;;;;;;;14.15;11.98;;;;;;;33.04;41.19;101241.34;4198885;28;20040;-59
2022/07/23 01:30:25;;;;;;;13.82;12.40;;;;;;;33.04;41.26;101244.19;4198733;28;20040;-59
2022/07/23 01:32:26;;;;;;;13.82;12.23;;;;;;;33.00;41.07;101248.91;4197444;28;20048;-59
2022/07/23 01:34:27;;;;;;;12.77;11.48;;;;;;;33.02;41.14;101255.84;4198825;28;20036;-58
2022/07/23 01:36:32;;;;;;;13.13;11.90;;;;;;;33.03;41.17;101251.84;4198769;28;20106;-59
2022/07/23 01:38:33;;;;;;;13.20;11.90;;;;;;;33.03;41.38;101257.50;4198469;28;20688;-59
2022/07/23 01:40:37;;;;;;;13.52;12.23;;;;;;;33.03;41.50;101256.69;4198401;28;20098;-58
2022/07/23 01:42:38;;;;;;;13.88;12.48;;;;;;;33.02;41.42;101261.53;4198712;28;20094;-58
2022/07/23 01:44:40;;;;;;;13.57;12.13;;;;;;;33.03;41.19;101262.34;4198718;28;20054;-58
2022/07/23 01:46:44;;;;;;;14.07;12.77;;;;;;;33.03;41.44;101259.50;4198376;28;20048;-59
2022/07/23 01:48:45;;;;;;;13.65;12.35;;;;;;;33.03;41.32;101262.34;4198033;28;20040;-59
2022/07/23 01:50:47;;;;;;;14.20;12.70;;;;;;;33.04;41.49;101264.03;4198600;28;20044;-59
2022/07/23 01:52:49;;;;;;;13.18;11.82;;;;;;;33.03;41.45;101257.50;4198350;28;20044;-60
2022/07/23 01:54:50;;;;;;;15.55;13.50;;;;;;;33.03;41.36;101262.34;4198363;28;20045;-59
2022/07/23 01:56:54;;;;;;;12.93;11.73;;;;;;;33.02;41.39;101261.53;4198420;28;20102;-60
2022/07/23 01:58:56;;;;;;;14.75;12.00;;;;;;;33.03;41.63;101262.34;4197124;28;20146;-59
2022/07/23 02:01:00;;;;;;;13.45;12.05;;;;;;;33.03;41.41;101259.50;4196527;28;20098;-59
2022/07/23 02:03:02;;;;;;;13.77;12.45;;;;;;;33.04;41.62;101275.38;4198482;28;20162;-59
2022/07/23 02:05:03;;;;;;;13.80;12.45;;;;;;;33.03;41.53;101271.69;4197833;28;20529;-60
2022/07/23 02:07:06;;;;;;;12.45;11.35;;;;;;;33.03;41.72;101273.69;4199258;28;20032;-57
2022/07/23 02:09:07;;;;;;;13.40;12.10;;;;;;;33.02;41.80;101283.38;4198056;28;20036;-60
2022/07/23 02:11:08;;;;;;;13.07;11.50;;;;;;;32.96;41.46;101274.31;4198439;28;20430;-60
2022/07/23 02:13:10;;;;;;;13.95;12.27;;;;;;;33.03;41.56;101279.38;4197780;28;20049;-58
2022/07/23 02:15:11;;;;;;;13.00;11.80;;;;;;;33.02;41.73;101283.38;4197382;28;20111;-60
2022/07/23 02:17:15;;;;;;;13.68;12.35;;;;;;;33.03;41.82;101285.03;4197647;28;20106;-60
2022/07/23 02:19:16;;;;;;;14.25;12.93;;;;;;;33.01;41.61;101284.56;4197450;28;20533;-58
2022/07/23 02:21:18;;;;;;;12.15;11.07;;;;;;;33.00;41.64;101282.94;4197694;28;20533;-58
2022/07/23 02:23:22;;;;;;;12.95;11.65;;;;;;;33.02;41.63;101283.38;4198089;28;20436;-57
2022/07/23 02:25:23;;;;;;;13.77;12.23;;;;;;;33.01;41.66;101282.56;4197965;28;20102;-58
2022/07/23 02:27:25;;;;;;;13.38;12.07;;;;;;;32.97;41.63;101286.47;4198090;28;20028;-57
2022/07/23 02:29:26;;;;;;;13.98;12.68;;;;;;;33.02;41.79;101295.53;4197540;28;20044;-58
2022/07/23 02:31:29;;;;;;;14.02;12.60;;;;;;;33.03;42.05;101296.38;4197561;28;20048;-58
2022/07/23 02:33:30;;;;;;;13.65;12.23;;;;;;;33.03;41.98;101296.38;4197896;28;20029;-59
2022/07/23 02:35:32;;;;;;;13.70;12.10;;;;;;;32.99;41.99;101296.28;4196498;28;20090;-58
2022/07/23 02:37:33;;;;;;;13.43;12.10;;;;;;;33.01;41.63;101301.59;4197787;28;20033;-58
2022/07/23 02:39:35;;;;;;;13.40;12.10;;;;;;;33.03;41.98;101302.03;4197468;28;20036;-58
2022/07/23 02:41:37;;;;;;;13.45;12.15;;;;;;;33.03;41.77;101304.88;4197761;28;20562;-58
2022/07/23 02:43:39;;;;;;;13.48;12.18;;;;;;;33.03;41.89;101296.38;4197781;28;20040;-59
2022/07/23 02:45:40;;;;;;;13.90;12.50;;;;;;;33.03;41.98;101302.03;4197500;28;20089;-58
2022/07/23 02:47:41;;;;;;;13.60;12.30;;;;;;;33.02;42.11;101306.06;4197686;28;20090;-58
2022/07/23 02:49:42;;;;;;;14.13;12.60;;;;;;;32.97;41.92;101298.63;4197358;28;20048;-59
2022/07/23 02:51:46;;;;;;;13.80;12.43;;;;;;;32.96;41.89;101290.50;4197299;28;20040;-59
2022/07/23 02:53:47;;;;;;;13.97;12.50;;;;;;;33.03;42.06;101302.03;4197795;28;20037;-59
2022/07/23 02:55:54;;;;;;;13.73;12.43;;;;;;;32.98;41.83;101293.78;4197691;28;20421;-59
2022/07/23 02:57:58;;;;;;;14.77;13.35;;;;;;;33.03;42.09;101302.88;4197771;28;20044;-58
2022/07/23 02:59:59;;;;;;;13.80;12.48;;;;;;;33.04;41.91;101310.22;4197242;28;20045;-59
2022/07/23 03:02:03;;;;;;;13.68;12.35;;;;;;;33.04;41.88;101309.38;4197586;28;20094;-58
2022/07/23 03:04:04;;;;;;;15.40;12.93;;;;;;;33.03;42.13;101307.72;4197797;28;20090;-59
2022/07/23 03:06:06;;;;;;;15.05;13.13;;;;;;;33.04;42.13;101303.72;4197549;28;20476;-58
2022/07/23 03:08:13;;;;;;;13.15;11.85;;;;;;;33.04;42.10;101307.38;4197385;28;20040;-58
2022/07/23 03:10:14;;;;;;;13.82;12.43;;;;;;;33.03;42.17;101305.69;4196950;28;20097;-58
2022/07/23 03:12:18;;;;;;;14.10;12.68;;;;;;;33.00;41.98;101303.59;4197443;28;20078;-59
2022/07/23 03:14:19;;;;;;;13.80;12.35;;;;;;;33.04;42.30;101298.03;4197264;28;20044;-58
2022/07/23 03:16:21;;;;;;;14.00;12.52;;;;;;;33.04;42.12;101309.38;4197704;28;20422;-59
2022/07/23 03:18:24;;;;;;;13.63;12.25;;;;;;;33.04;42.44;101306.56;4197524;28;20074;-59
2022/07/23 03:20:29;;;;;;;13.77;12.40;;;;;;;33.04;42.15;101303.72;4197170;28;20553;-59
2022/07/23 03:22:30;;;;;;;14.27;12.18;;;;;;;33.04;42.35;101303.72;4197628;28;20041;-59
2022/07/23 03:26:51;;;;;;;14.77;13.27;;;;;;;33.03;42.10;101299.22;4198361;28;20434;-58
2022/07/23 03:28:52;;;;;;;14.07;12.68;;;;;;;33.04;42.09;101298.03;4197197;28;20086;-58
2022/07/23 03:30:54;;;;;;;14.73;13.20;;;;;;;33.04;42.28;101300.88;4197350;28;20431;-58
2022/07/23 03:32:55;;;;;;;15.10;13.50;;;;;;;33.03;42.31;101302.03;4197336;28;20040;-58
2022/07/23 03:34:57;;;;;;;14.02;12.52;;;;;;;32.97;42.36;101289.31;4197235;28;20036;-58
2022/07/23 03:37:01;;;;;;;14.55;13.00;;;;;;;33.02;42.19;101306.06;4196926;28;20040;-58
2022/07/23 03:39:03;;;;;;;14.43;13.02;;;;;;;33.03;42.45;101304.88;4197227;28;20029;-58
2022/07/23 03:41:10;;;;;;;13.40;12.10;;;;;;;33.02;42.47;101300.41;4197327;28;20106;-58
2022/07/23 03:43:11;;;;;;;14.65;13.27;;;;;;;33.03;42.36;101302.03;4197047;28;20094;-58
2022/07/23 03:45:12;;;;;;;14.52;13.02;;;;;;;33.03;42.35;101302.03;4197607;28;20048;-59
2022/07/23 03:47:17;;;;;;;13.77;12.30;;;;;;;33.03;42.35;101299.22;4197083;28;20444;-59
2022/07/23 03:49:18;;;;;;;14.27;12.77;;;;;;;33.03;42.36;101297.19;4197013;28;20546;-58
2022/07/23 03:51:29;;;;;;;13.35;11.95;;;;;;;33.03;42.38;101296.38;4197178;28;20070;-59
2022/07/23 03:53:30;;;;;;;13.73;12.32;;;;;;;32.87;42.37;101277.22;4197003;28;20036;-60
2022/07/23 03:55:31;;;;;;;14.20;12.80;;;;;;;33.03;42.77;101307.72;4199219;28;20094;-60
2022/07/23 03:57:33;;;;;;;14.20;12.80;;;;;;;33.02;42.58;101306.06;4200465;28;20044;-59
2022/07/23 03:59:37;;;;;;;13.77;12.38;;;;;;;33.02;42.36;101309.72;4200173;28;20036;-59
2022/07/23 04:01:38;;;;;;;13.70;12.40;;;;;;;33.01;42.56;101304.41;4199119;28;20041;-60
2022/07/23 04:03:42;;;;;;;14.65;13.15;;;;;;;33.02;42.71;101300.41;4200392;28;20049;-59
2022/07/23 04:05:48;;;;;;;13.23;11.90;;;;;;;32.98;42.63;101303.09;4200205;28;20476;-59
2022/07/23 04:07:50;;;;;;;13.68;12.32;;;;;;;33.02;42.72;101303.22;4200252;28;20331;-59
2022/07/23 04:09:52;;;;;;;13.95;12.63;;;;;;;33.02;42.49;101304.06;4199900;28;20102;-59
2022/07/23 04:11:53;;;;;;;14.52;13.02;;;;;;;33.01;42.51;101305.25;4199659;28;20044;-60
2022/07/23 04:13:54;;;;;;;12.77;11.48;;;;;;;33.02;42.55;101306.88;4200211;28;20086;-60
2022/07/23 04:15:56;;;;;;;13.68;12.20;;;;;;;33.01;42.65;101301.59;4200075;28;20442;-59
2022/07/23 04:17:57;;;;;;;14.20;12.80;;;;;;;33.02;42.60;101306.06;4200316;28;20032;-59
2022/07/23 04:19:58;;;;;;;14.30;12.80;;;;;;;33.02;42.82;101311.72;4199753;28;20391;-59
2022/07/23 04:22:00;;;;;;;14.52;12.98;;;;;;;33.02;42.63;101311.72;4199586;28;20102;-59
2022/07/23 04:24:02;;;;;;;14.07;12.68;;;;;;;33.02;42.60;101320.25;4199586;28;20040;-60
2022/07/23 04:26:03;;;;;;;13.32;12.05;;;;;;;33.02;42.65;101323.06;4199492;28;20533;-60
2022/07/23 04:28:04;;;;;;;13.57;12.20;;;;;;;33.01;42.85;101327.09;4199849;28;20105;-60
2022/07/23 04:30:06;;;;;;;13.80;12.45;;;;;;;32.99;42.70;101312.44;4198127;28;20082;-59
2022/07/23 04:32:10;;;;;;;13.40;12.02;;;;;;;33.00;42.89;101314.13;4199638;28;20045;-59
2022/07/23 04:34:12;;;;;;;14.30;12.80;;;;;;;33.02;42.63;101323.06;4199297;28;20044;-59
2022/07/23 04:36:13;;;;;;;14.75;13.25;;;;;;;33.02;42.76;101323.06;4199848;28;20037;-59
2022/07/23 04:38:14;;;;;;;15.05;13.25;;;;;;;33.02;42.77;101328.75;4199437;28;20090;-59
2022/07/23 04:40:16;;;;;;;12.90;11.70;;;;;;;33.01;42.90;101315.75;4199281;28;20384;-59
2022/07/23 04:42:17;;;;;;;13.27;11.98;;;;;;;33.02;42.82;101321.06;4199435;28;20468;-59
2022/07/23 04:44:18;;;;;;;13.05;11.70;;;;;;;33.03;42.85;101327.56;4199901;28;20048;-59
2022/07/23 04:46:20;;;;;;;13.55;12.20;;;;;;;33.02;43.01;101328.75;4199373;28;20037;-59
2022/07/23 04:48:21;;;;;;;13.90;12.60;;;;;;;33.02;42.83;101323.06;4199738;28;20075;-59
2022/07/23 04:50:25;;;;;;;13.68;12.38;;;;;;;33.03;42.91;101321.88;4198814;28;20098;-59
2022/07/23 04:52:30;;;;;;;16.00;13.00;;;;;;;33.03;42.96;101330.41;4199359;28;20109;-60
2022/07/23 04:54:34;;;;;;;13.27;12.07;;;;;;;33.00;43.05;101316.94;4199603;28;20028;-59
2022/07/23 04:56:38;;;;;;;13.38;12.18;;;;;;;33.03;42.84;101322.72;4199319;28;20413;-59
2022/07/23 04:58:39;;;;;;;14.48;12.95;;;;;;;33.02;42.81;101328.75;4199333;28;20110;-59
2022/07/23 05:00:40;;;;;;;13.75;12.35;;;;;;;33.02;42.71;101326.72;4199344;28;20041;-59
2022/07/23 05:02:42;;;;;;;13.55;12.25;;;;;;;33.03;43.18;101330.41;4199672;28;20426;-60
2022/07/23 05:04:46;;;;;;;13.07;11.88;;;;;;;33.02;43.38;101329.56;4198948;28;20094;-59
2022/07/23 05:06:50;;;;;;;13.15;11.95;;;;;;;33.02;42.97;101334.41;4198104;28;20098;-59
2022/07/23 05:08:51;;;;;;;14.75;13.35;;;;;;;33.01;43.18;101332.78;4198838;28;20041;-60
2022/07/23 05:10:55;;;;;;;13.75;12.35;;;;;;;33.01;43.22;101333.59;4199225;28;20040;-60
2022/07/23 05:12:57;;;;;;;13.70;12.32;;;;;;;33.01;43.24;101338.44;4199289;28;20028;-57
2022/07/23 05:14:58;;;;;;;13.60;12.30;;;;;;;32.96;43.25;101321.66;4199208;28;20040;-59
2022/07/23 05:17:00;;;;;;;14.15;12.73;;;;;;;33.01;43.12;101327.09;4199272;28;20044;-59
2022/07/23 05:19:01;;;;;;;13.32;12.07;;;;;;;32.96;43.86;101324.50;4198436;28;20075;-60
2022/07/23 05:21:02;;;;;;;13.77;12.48;;;;;;;32.89;43.34;101311.69;4199187;28;20028;-57
2022/07/23 05:23:04;;;;;;;13.73;12.43;;;;;;;33.01;43.45;101333.59;4198806;28;20040;-57
2022/07/23 05:25:07;;;;;;;14.60;13.15;;;;;;;33.02;43.30;101334.41;4199149;28;20028;-58
2022/07/23 05:27:08;;;;;;;13.27;11.88;;;;;;;33.02;43.25;101337.25;4198651;28;20082;-60
2022/07/23 05:29:09;;;;;;;13.60;12.40;;;;;;;33.01;43.28;101335.59;4198655;28;20114;-57
2022/07/23 05:31:11;;;;;;;14.57;13.07;;;;;;;33.01;43.37;101339.25;4198855;28;20136;-58
2022/07/23 05:33:12;;;;;;;13.35;12.05;;;;;;;33.01;43.11;101338.44;4198642;28;20188;-59
2022/07/23 05:35:16;;;;;;;13.80;12.50;;;;;;;33.00;43.24;101336.78;4198906;28;20102;-58
2022/07/23 05:37:17;;;;;;;13.20;11.90;;;;;;;33.01;43.84;101344.13;4198888;28;20066;-58
2022/07/23 05:39:19;;;;;;;13.15;11.95;;;;;;;32.94;43.62;101332.53;4198533;28;20098;-58
2022/07/23 05:41:20;;;;;;;13.90;12.55;;;;;;;32.99;43.38;101337.94;4198697;28;20483;-58
2022/07/23 05:43:21;;;;;;;13.30;11.95;;;;;;;33.00;43.41;101339.63;4198616;28;20032;-58
2022/07/23 05:45:23;;;;;;;13.38;11.93;;;;;;;32.99;43.59;101335.97;4198658;28;20045;-58
2022/07/23 05:47:27;;;;;;;14.13;12.70;;;;;;;32.96;43.77;101325.34;4198653;28;20102;-58
2022/07/23 05:49:28;;;;;;;13.85;12.52;;;;;;;32.99;43.50;101335.13;4198337;28;20087;-58
2022/07/23 05:51:29;;;;;;;13.25;11.95;;;;;;;32.99;43.51;101335.13;4198466;28;20094;-58
2022/07/23 05:53:33;;;;;;;14.05;12.75;;;;;;;32.98;43.56;101333.47;4198487;28;20041;-58
2022/07/23 05:55:34;;;;;;;14.43;13.13;;;;;;;32.98;43.77;101334.28;4198601;28;20045;-58
2022/07/23 05:57:39;;;;;;;13.52;12.13;;;;;;;32.98;43.77;101334.28;4197833;28;20032;-58
2022/07/23 05:59:41;;;;;;;13.45;12.02;;;;;;;32.99;43.63;101329.44;4197763;28;20070;-58
2022/07/23 06:01:42;;;;;;;13.82;12.43;;;;;;;32.98;43.53;101331.47;4198350;28;20049;-58
2022/07/23 06:03:43;;;;;;;14.20;12.80;;;;;;;32.99;44.21;101329.44;4198456;28;20117;-58
2022/07/23 06:05:45;;;;;;;13.65;12.35;;;;;;;32.97;43.39;101326.97;4198164;28;20102;-58
2022/07/23 06:07:46;;;;;;;13.25;11.95;;;;;;;32.96;43.80;101330.19;4198317;28;20037;-58
2022/07/23 06:09:48;;;;;;;14.30;13.00;;;;;;;32.97;43.77;101331.81;4197655;28;20434;-58
2022/07/23 06:11:50;;;;;;;13.85;12.55;;;;;;;32.90;43.84;101323.91;4198223;28;20041;-58
2022/07/23 06:13:54;;;;;;;13.80;12.50;;;;;;;32.97;43.91;101334.66;4198198;28;20041;-58
2022/07/23 06:15:58;;;;;;;13.82;12.50;;;;;;;32.97;43.87;101331.81;4198332;28;20032;-57
2022/07/23 06:18:05;;;;;;;14.75;12.82;;;;;;;32.98;43.62;101339.13;4197561;28;20029;-58
2022/07/23 06:20:07;;;;;;;13.45;12.15;;;;;;;32.91;44.08;101327.59;4197480;28;20113;-58
2022/07/23 06:22:09;;;;;;;13.32;12.00;;;;;;;32.89;43.63;101325.88;4197811;28;20399;-58
2022/07/23 06:24:10;;;;;;;12.68;11.50;;;;;;;32.96;44.30;101330.19;4198031;28;20040;-58
2022/07/23 06:26:11;;;;;;;13.15;11.95;;;;;;;32.96;44.45;101335.84;4197933;28;20041;-58
2022/07/23 06:28:13;;;;;;;13.85;12.55;;;;;;;32.96;44.62;101342.34;4198082;28;20102;-58
2022/07/23 06:30:18;;;;;;;12.98;11.68;;;;;;;32.96;43.85;101338.69;4197364;28;20916;-58
2022/07/23 06:32:20;;;;;;;12.95;11.55;;;;;;;32.89;44.09;101325.88;4197610;28;20044;-58
2022/07/23 06:34:24;;;;;;;13.20;11.80;;;;;;;32.97;44.58;101343.16;4197466;28;20740;-58
2022/07/23 06:36:26;;;;;;;13.48;12.07;;;;;;;32.96;44.65;101345.19;4197684;28;20040;-58
2022/07/23 06:38:28;;;;;;;12.75;11.55;;;;;;;32.95;44.63;101340.69;4197671;28;20105;-58
2022/07/23 06:40:29;;;;;;;12.70;11.52;;;;;;;32.95;45.04;101345.53;4197606;28;20086;-58
2022/07/23 06:42:33;;;;;;;13.38;12.00;;;;;;;32.91;45.00;101330.41;4197822;28;20434;-58
2022/07/23 06:44:34;;;;;;;13.48;12.02;;;;;;;32.95;44.83;101337.03;4197597;28;20028;-57
2022/07/23 06:46:35;;;;;;;13.13;11.75;;;;;;;32.95;44.43;101334.19;4197765;28;20040;-58
2022/07/23 06:48:36;;;;;;;13.10;11.80;;;;;;;32.94;44.68;101338.19;4198092;28;20024;-58
2022/07/23 06:50:38;;;;;;;12.57;11.30;;;;;;;32.94;44.63;101338.19;4197515;28;20040;-57
2022/07/23 06:52:39;;;;;;;13.25;11.95;;;;;;;32.93;44.46;101343.03;4197887;28;20038;-57
2022/07/23 06:54:40;;;;;;;13.55;12.18;;;;;;;32.93;44.31;101339.38;4198205;28;20441;-57
2022/07/23 06:56:45;;;;;;;12.93;11.63;;;;;;;32.90;44.03;101332.41;4197695;28;20125;-58
2022/07/23 06:58:46;;;;;;;13.68;11.95;;;;;;;32.94;44.47;101338.19;4197368;28;20037;-58
2022/07/23 07:00:48;;;;;;;13.90;12.48;;;;;;;32.94;44.67;101349.53;4197731;28;20094;-58
2022/07/23 07:02:49;;;;;;;13.50;12.20;;;;;;;32.94;45.01;101335.34;4197240;28;20036;-58
2022/07/23 07:04:50;;;;;;;12.63;11.43;;;;;;;32.93;44.80;101337.38;4196391;28;20032;-58
2022/07/23 07:06:52;;;;;;;13.65;12.25;;;;;;;32.90;45.15;101332.41;4197003;28;20122;-58
2022/07/23 07:08:53;;;;;;;13.65;12.27;;;;;;;32.94;44.89;101332.53;4197370;28;20036;-58
2022/07/23 07:10:54;;;;;;;14.05;12.65;;;;;;;32.93;45.08;101339.38;4197405;28;20048;-58
2022/07/23 07:12:56;;;;;;;13.30;12.00;;;;;;;32.93;44.81;101342.22;4197536;28;20040;-58
2022/07/23 07:14:57;;;;;;;14.00;12.60;;;;;;;32.93;44.88;101342.22;4197614;28;20090;-58
2022/07/23 07:16:58;;;;;;;13.27;11.98;;;;;;;32.92;44.68;101335.72;4197563;28;20040;-58
2022/07/23 07:19:00;;;;;;;12.45;11.25;;;;;;;32.93;44.57;101342.22;4197048;28;20557;-57
2022/07/23 07:21:04;;;;;;;12.55;11.40;;;;;;;32.92;44.75;101338.56;4197182;28;20680;-58
2022/07/23 07:23:08;;;;;;;12.73;11.32;;;;;;;32.93;44.70;101342.22;4197563;28;20041;-58
2022/07/23 07:25:09;;;;;;;12.43;11.05;;;;;;;32.93;45.18;101343.03;4197586;28;20036;-58
2022/07/23 07:27:11;;;;;;;13.00;11.80;;;;;;;32.93;44.77;101342.22;4197592;28;20091;-58
2022/07/23 07:29:12;;;;;;;13.38;12.10;;;;;;;32.93;45.01;101348.72;4196856;28;20048;-58
2022/07/23 07:31:16;;;;;;;13.10;11.80;;;;;;;32.89;44.98;101342.88;4199504;28;20089;-58
2022/07/23 07:33:17;;;;;;;13.20;11.98;;;;;;;32.89;44.95;101347.72;4200653;28;20087;-58
2022/07/23 07:35:22;;;;;;;12.95;11.75;;;;;;;32.93;44.97;101356.38;4200488;28;20036;-58
2022/07/23 07:37:25;;;;;;;13.23;11.98;;;;;;;32.91;44.76;101355.94;4200693;28;20086;-58
2022/07/23 07:39:30;;;;;;;13.00;11.43;;;;;;;32.92;45.20;101357.56;4200164;28;20032;-58
2022/07/23 07:41:31;;;;;;;13.20;11.95;;;;;;;32.91;44.97;101356.75;4201229;28;20037;-58
2022/07/23 07:43:32;;;;;;;12.70;11.50;;;;;;;32.92;44.95;101349.06;4200216;28;20087;-58
2022/07/23 07:45:34;;;;;;;13.65;12.25;;;;;;;32.91;44.66;101362.41;4200609;28;20040;-58
2022/07/23 07:47:35;;;;;;;12.63;11.52;;;;;;;32.87;44.43;101355.78;4200363;28;20094;-58
2022/07/23 07:49:36;;;;;;;13.73;12.43;;;;;;;32.91;44.34;101367.28;4200174;28;20041;-58
2022/07/23 07:51:38;;;;;;;13.77;12.35;;;;;;;32.90;44.71;101369.25;4200148;28;20045;-58
2022/07/23 07:53:39;;;;;;;12.75;11.52;;;;;;;32.91;44.42;101372.94;4200415;28;20102;-58
2022/07/23 07:55:41;;;;;;;13.57;12.27;;;;;;;32.89;44.42;101371.22;4200385;28;20904;-58
2022/07/23 07:57:42;;;;;;;13.90;12.40;;;;;;;32.89;44.74;101371.22;4199920;28;20595;-58
2022/07/23 07:59:43;;;;;;;13.38;12.02;;;;;;;32.90;44.73;101377.75;4199445;28;20040;-58
2022/07/23 08:01:48;;;;;;;13.52;12.23;;;;;;;32.89;44.72;101387.41;4200422;28;20434;-58
2022/07/23 08:03:49;;;;;;;13.32;12.02;;;;;;;32.89;44.98;101376.91;4199961;28;20032;-58
2022/07/23 08:05:50;;;;;;;13.15;11.90;;;;;;;32.89;44.71;101382.56;4199887;28;20045;-58
2022/07/23 08:08:01;;;;;;;13.35;12.05;;;;;;;32.89;44.65;101393.91;4199028;28;20424;-58
2022/07/23 08:10:05;;;;;;;14.52;12.07;;;;;;;32.90;44.63;101389.09;4199808;28;20086;-58
2022/07/23 08:12:09;;;;;;;12.70;11.55;;;;;;;32.89;44.67;101393.91;4200224;28;20090;-58
2022/07/23 08:14:14;;;;;;;13.68;12.40;;;;;;;32.88;44.46;101397.94;4199828;28;20094;-58
2022/07/23 08:16:15;;;;;;;13.45;12.15;;;;;;;32.84;44.90;101384.81;4200101;28;20468;-58
2022/07/23 08:18:19;;;;;;;12.68;11.50;;;;;;;32.88;44.82;101394.28;4199619;28;20476;-59
2022/07/23 08:20:22;;;;;;;12.32;11.13;;;;;;;32.88;44.48;101408.44;4199725;28;20094;-58
2022/07/23 08:22:24;;;;;;;13.52;12.27;;;;;;;32.88;44.74;101403.59;4198962;28;20464;-58
2022/07/23 08:24:25;;;;;;;12.85;11.55;;;;;;;32.88;44.89;101402.78;4200041;28;20037;-58
2022/07/23 08:26:29;;;;;;;13.20;11.68;;;;;;;32.82;45.11;101390.84;4199740;28;20430;-58
2022/07/23 08:28:33;;;;;;;12.18;10.98;;;;;;;32.87;44.81;101401.94;4200082;28;20468;-58
2022/07/23 08:30:36;;;;;;;13.15;11.85;;;;;;;32.87;44.86;101399.13;4193844;28;20032;-58
2022/07/23 08:33:05;;;;;;;12.25;11.10;;;;;;;32.87;44.77;101401.94;4199624;28;20439;-58
2022/07/23 08:35:06;;;;;;;12.93;11.63;;;;;;;32.88;44.65;101400.75;4199698;28;20040;-58
2022/07/23 08:37:07;;;;;;;13.18;11.98;;;;;;;32.89;44.57;101410.09;4199806;28;20085;-58
2022/07/23 08:39:09;;;;;;;12.43;11.32;;;;;;;32.88;44.86;101403.59;4199509;28;20072;-58
2022/07/23 08:41:30;;;;;;;12.60;11.50;;;;;;;32.87;45.03;101401.94;4199377;28;20045;-58
2022/07/23 08:43:35;;;;;;;13.07;11.85;;;;;;;32.88;45.15;101409.25;4199443;28;20048;-58
2022/07/23 08:45:42;;;;;;;12.63;11.43;;;;;;;32.80;45.30;101395.19;4199900;28;20033;-57
2022/07/23 08:47:44;;;;;;;12.80;11.60;;;;;;;32.80;45.47;101396.03;4199511;28;20525;-58
2022/07/23 08:49:46;;;;;;;12.75;11.43;;;;;;;32.86;45.51;101414.47;4199365;28;20070;-58
2022/07/23 08:51:48;;;;;;;13.43;12.13;;;;;;;32.87;45.86;101418.94;4199513;28;20044;-58
2022/07/23 08:53:50;;;;;;;13.63;12.02;;;;;;;32.87;45.47;101412.47;4199035;28;20442;-58
2022/07/23 08:55:53;;;;;;;12.30;11.20;;;;;;;32.86;45.47;101420.13;4198642;28;20118;-58
2022/07/23 08:57:55;;;;;;;13.32;11.60;;;;;;;32.83;45.54;101406.66;4196644;28;20093;-58
2022/07/23 08:59:57;;;;;;;13.35;11.98;;;;;;;32.86;45.74;101416.47;4197881;28;20040;-58
2022/07/23 09:02:00;;;;;;;13.23;11.77;;;;;;;32.85;45.49;101412.81;4199094;28;20040;-58
2022/07/23 09:04:01;;;;;;;13.57;12.18;;;;;;;32.81;45.65;101408.22;4199148;28;20087;-58
2022/07/23 09:06:05;;;;;;;12.82;11.63;;;;;;;32.83;45.42;101420.84;4199367;28;20045;-58
2022/07/23 09:08:12;;;;;;;13.32;11.90;;;;;;;32.83;45.29;101418.00;4199122;28;20049;-58
2022/07/23 09:10:14;;;;;;;12.10;10.98;;;;;;;32.86;45.40;101427.81;4198571;28;20028;-58
2022/07/23 09:12:15;;;;;;;12.50;11.23;;;;;;;32.84;45.65;101425.31;4199256;28;20480;-58
2022/07/23 09:14:35;;;;;;;12.40;11.20;;;;;;;32.82;45.35;101422.03;4199096;28;20044;-58
2022/07/23 09:16:36;;;;;;;12.15;11.02;;;;;;;32.83;45.58;101429.34;4199533;28;20098;-57
2022/07/23 09:18:49;;;;;;;11.30;10.10;;;;;;;32.81;45.22;101431.72;4199113;28;20477;-58